sensor_id;sensor_type;location;lat;lon;timestamp;P1;durP1;ratioP1;P2;durP2;ratioP2
83495;SDS011;73431;40.794;43.836;2024-03-29T00:02:12;31.90;;;11.63;;
83495;SDS011;73431;40.794;43.836;2024-03-29T00:04:39;31.73;;;12.13;;
83495;SDS011;73431;40.794;43.836;2024-03-29T00:07:05;23.85;;;11.80;;
83495;SDS011;73431;40.794;43.836;2024-03-29T00:09:31;28.80;;;11.93;;
83495;SDS011;73431;40.794;43.836;2024-03-29T00:11:58;26.95;;;11.82;;
83495;SDS011;73431;40.794;43.836;2024-03-29T00:14:24;29.98;;;11.70;;
83495;SDS011;73431;40.794;43.836;2024-03-29T00:16:52;27.38;;;11.63;;
83495;SDS011;73431;40.794;43.836;2024-03-29T00:19:19;22.58;;;11.63;;
83495;SDS011;73431;40.794;43.836;2024-03-29T00:21:45;19.50;;;10.68;;
83495;SDS011;73431;40.794;43.836;2024-03-29T00:24:12;28.60;;;11.30;;
83495;SDS011;73431;40.794;43.836;2024-03-29T00:26:39;28.40;;;11.20;;
83495;SDS011;73431;40.794;43.836;2024-03-29T00:29:05;22.85;;;10.90;;
83495;SDS011;73431;40.794;43.836;2024-03-29T00:31:31;20.58;;;10.30;;
83495;SDS011;73431;40.794;43.836;2024-03-29T00:33:58;21.52;;;10.13;;
83495;SDS011;73431;40.794;43.836;2024-03-29T00:36:24;18.50;;;8.60;;
83495;SDS011;73431;40.794;43.836;2024-03-29T00:38:51;30.55;;;9.50;;
83495;SDS011;73431;40.794;43.836;2024-03-29T00:41:18;45.17;;;9.90;;
83495;SDS011;73431;40.794;43.836;2024-03-29T00:43:45;22.65;;;11.13;;
83495;SDS011;73431;40.794;43.836;2024-03-29T00:46:11;30.35;;;10.82;;
83495;SDS011;73431;40.794;43.836;2024-03-29T00:48:38;25.85;;;12.50;;
83495;SDS011;73431;40.794;43.836;2024-03-29T00:51:04;30.88;;;13.57;;
83495;SDS011;73431;40.794;43.836;2024-03-29T00:53:30;41.38;;;12.57;;
83495;SDS011;73431;40.794;43.836;2024-03-29T00:55:57;32.72;;;11.65;;
83495;SDS011;73431;40.794;43.836;2024-03-29T00:58:24;21.60;;;10.20;;
83495;SDS011;73431;40.794;43.836;2024-03-29T01:00:51;26.65;;;12.15;;
83495;SDS011;73431;40.794;43.836;2024-03-29T01:03:17;23.50;;;11.30;;
83495;SDS011;73431;40.794;43.836;2024-03-29T01:05:44;26.10;;;11.48;;
83495;SDS011;73431;40.794;43.836;2024-03-29T01:08:10;16.02;;;9.70;;
83495;SDS011;73431;40.794;43.836;2024-03-29T01:10:37;20.38;;;9.35;;
83495;SDS011;73431;40.794;43.836;2024-03-29T01:13:04;19.13;;;9.48;;
83495;SDS011;73431;40.794;43.836;2024-03-29T01:15:30;16.05;;;8.10;;
83495;SDS011;73431;40.794;43.836;2024-03-29T01:17:56;21.45;;;8.35;;
83495;SDS011;73431;40.794;43.836;2024-03-29T01:20:23;15.10;;;8.35;;
83495;SDS011;73431;40.794;43.836;2024-03-29T01:22:49;17.50;;;8.50;;
83495;SDS011;73431;40.794;43.836;2024-03-29T01:25:16;18.88;;;8.35;;
83495;SDS011;73431;40.794;43.836;2024-03-29T01:27:44;17.52;;;8.05;;
83495;SDS011;73431;40.794;43.836;2024-03-29T01:30:10;20.10;;;8.25;;
83495;SDS011;73431;40.794;43.836;2024-03-29T01:32:37;14.57;;;6.95;;
83495;SDS011;73431;40.794;43.836;2024-03-29T01:35:04;23.40;;;8.15;;
83495;SDS011;73431;40.794;43.836;2024-03-29T01:37:30;30.60;;;8.15;;
83495;SDS011;73431;40.794;43.836;2024-03-29T01:39:57;21.75;;;7.97;;
83495;SDS011;73431;40.794;43.836;2024-03-29T01:42:24;12.98;;;7.45;;
83495;SDS011;73431;40.794;43.836;2024-03-29T01:44:50;24.10;;;6.68;;
83495;SDS011;73431;40.794;43.836;2024-03-29T01:47:17;16.73;;;7.40;;
83495;SDS011;73431;40.794;43.836;2024-03-29T01:49:44;16.60;;;7.43;;
83495;SDS011;73431;40.794;43.836;2024-03-29T01:52:12;12.77;;;6.18;;
83495;SDS011;73431;40.794;43.836;2024-03-29T01:54:40;13.15;;;6.22;;
83495;SDS011;73431;40.794;43.836;2024-03-29T01:57:08;11.07;;;6.35;;
83495;SDS011;73431;40.794;43.836;2024-03-29T01:59:35;12.60;;;6.07;;
83495;SDS011;73431;40.794;43.836;2024-03-29T02:02:03;12.82;;;5.88;;
83495;SDS011;73431;40.794;43.836;2024-03-29T02:04:31;13.77;;;7.05;;
83495;SDS011;73431;40.794;43.836;2024-03-29T02:06:58;18.83;;;7.07;;
83495;SDS011;73431;40.794;43.836;2024-03-29T02:09:25;15.40;;;6.85;;
83495;SDS011;73431;40.794;43.836;2024-03-29T02:11:51;17.30;;;7.15;;
83495;SDS011;73431;40.794;43.836;2024-03-29T02:14:18;15.85;;;7.03;;
83495;SDS011;73431;40.794;43.836;2024-03-29T02:16:48;18.30;;;7.45;;
83495;SDS011;73431;40.794;43.836;2024-03-29T02:19:16;15.52;;;6.10;;
83495;SDS011;73431;40.794;43.836;2024-03-29T02:21:43;14.95;;;6.30;;
83495;SDS011;73431;40.794;43.836;2024-03-29T02:24:14;14.45;;;6.47;;
83495;SDS011;73431;40.794;43.836;2024-03-29T02:26:43;9.63;;;5.43;;
83495;SDS011;73431;40.794;43.836;2024-03-29T02:29:10;13.20;;;6.28;;
83495;SDS011;73431;40.794;43.836;2024-03-29T02:31:38;14.30;;;6.95;;
83495;SDS011;73431;40.794;43.836;2024-03-29T02:34:04;27.33;;;7.10;;
83495;SDS011;73431;40.794;43.836;2024-03-29T02:36:33;14.93;;;7.47;;
83495;SDS011;73431;40.794;43.836;2024-03-29T02:39:00;21.45;;;8.20;;
83495;SDS011;73431;40.794;43.836;2024-03-29T02:41:27;15.35;;;7.05;;
83495;SDS011;73431;40.794;43.836;2024-03-29T02:43:56;12.57;;;7.35;;
83495;SDS011;73431;40.794;43.836;2024-03-29T02:46:23;15.02;;;6.78;;
83495;SDS011;73431;40.794;43.836;2024-03-29T02:48:50;23.05;;;7.05;;
83495;SDS011;73431;40.794;43.836;2024-03-29T02:51:16;16.88;;;6.82;;
83495;SDS011;73431;40.794;43.836;2024-03-29T02:53:42;28.27;;;7.47;;
83495;SDS011;73431;40.794;43.836;2024-03-29T02:56:09;17.33;;;7.85;;
83495;SDS011;73431;40.794;43.836;2024-03-29T02:58:35;17.55;;;8.02;;
83495;SDS011;73431;40.794;43.836;2024-03-29T03:01:06;18.05;;;8.10;;
83495;SDS011;73431;40.794;43.836;2024-03-29T03:03:36;20.38;;;8.93;;
83495;SDS011;73431;40.794;43.836;2024-03-29T03:06:03;14.80;;;7.35;;
83495;SDS011;73431;40.794;43.836;2024-03-29T03:08:31;18.42;;;8.15;;
83495;SDS011;73431;40.794;43.836;2024-03-29T03:11:16;17.90;;;8.00;;
83495;SDS011;73431;40.794;43.836;2024-03-29T03:13:43;13.68;;;7.22;;
83495;SDS011;73431;40.794;43.836;2024-03-29T03:16:09;14.65;;;7.38;;
83495;SDS011;73431;40.794;43.836;2024-03-29T03:18:35;20.50;;;9.30;;
83495;SDS011;73431;40.794;43.836;2024-03-29T03:21:02;25.02;;;9.18;;
83495;SDS011;73431;40.794;43.836;2024-03-29T03:23:30;23.00;;;7.53;;
83495;SDS011;73431;40.794;43.836;2024-03-29T03:25:57;17.38;;;7.20;;
83495;SDS011;73431;40.794;43.836;2024-03-29T03:28:24;11.60;;;7.18;;
83495;SDS011;73431;40.794;43.836;2024-03-29T03:30:52;22.60;;;8.40;;
83495;SDS011;73431;40.794;43.836;2024-03-29T03:35:46;26.60;;;8.55;;
83495;SDS011;73431;40.794;43.836;2024-03-29T03:38:13;32.80;;;8.77;;
83495;SDS011;73431;40.794;43.836;2024-03-29T03:40:40;27.33;;;8.95;;
83495;SDS011;73431;40.794;43.836;2024-03-29T03:43:06;24.98;;;10.35;;
83495;SDS011;73431;40.794;43.836;2024-03-29T03:45:34;26.40;;;9.13;;
83495;SDS011;73431;40.794;43.836;2024-03-29T03:48:05;29.70;;;8.80;;
83495;SDS011;73431;40.794;43.836;2024-03-29T03:50:39;49.28;;;11.70;;
83495;SDS011;73431;40.794;43.836;2024-03-29T03:53:07;41.45;;;9.90;;
83495;SDS011;73431;40.794;43.836;2024-03-29T03:55:37;28.50;;;10.02;;
83495;SDS011;73431;40.794;43.836;2024-03-29T03:58:03;28.90;;;9.95;;
83495;SDS011;73431;40.794;43.836;2024-03-29T04:00:30;23.73;;;9.63;;
83495;SDS011;73431;40.794;43.836;2024-03-29T04:02:57;24.33;;;10.18;;
83495;SDS011;73431;40.794;43.836;2024-03-29T04:05:24;25.25;;;10.85;;
83495;SDS011;73431;40.794;43.836;2024-03-29T04:07:51;14.82;;;8.52;;
83495;SDS011;73431;40.794;43.836;2024-03-29T04:10:18;13.00;;;7.57;;
83495;SDS011;73431;40.794;43.836;2024-03-29T04:12:44;14.60;;;8.48;;
83495;SDS011;73431;40.794;43.836;2024-03-29T04:15:11;14.27;;;7.60;;
83495;SDS011;73431;40.794;43.836;2024-03-29T04:17:37;15.10;;;7.88;;
83495;SDS011;73431;40.794;43.836;2024-03-29T04:20:04;18.88;;;7.47;;
83495;SDS011;73431;40.794;43.836;2024-03-29T04:22:31;15.52;;;7.50;;
83495;SDS011;73431;40.794;43.836;2024-03-29T04:24:57;11.80;;;6.68;;
83495;SDS011;73431;40.794;43.836;2024-03-29T04:27:24;13.45;;;7.22;;
83495;SDS011;73431;40.794;43.836;2024-03-29T04:29:51;12.55;;;8.00;;
83495;SDS011;73431;40.794;43.836;2024-03-29T04:32:18;13.75;;;6.43;;
83495;SDS011;73431;40.794;43.836;2024-03-29T04:34:49;13.10;;;6.60;;
83495;SDS011;73431;40.794;43.836;2024-03-29T04:37:16;10.43;;;6.38;;
83495;SDS011;73431;40.794;43.836;2024-03-29T04:39:43;11.43;;;7.30;;
83495;SDS011;73431;40.794;43.836;2024-03-29T04:42:10;12.52;;;6.45;;
83495;SDS011;73431;40.794;43.836;2024-03-29T04:44:37;13.85;;;6.82;;
83495;SDS011;73431;40.794;43.836;2024-03-29T04:47:04;12.75;;;6.80;;
83495;SDS011;73431;40.794;43.836;2024-03-29T04:49:31;17.25;;;7.53;;
83495;SDS011;73431;40.794;43.836;2024-03-29T04:52:06;13.13;;;6.95;;
83495;SDS011;73431;40.794;43.836;2024-03-29T04:54:33;15.30;;;7.68;;
83495;SDS011;73431;40.794;43.836;2024-03-29T04:57:00;17.23;;;8.32;;
83495;SDS011;73431;40.794;43.836;2024-03-29T04:59:28;16.08;;;8.43;;
83495;SDS011;73431;40.794;43.836;2024-03-29T05:01:55;15.30;;;8.40;;
83495;SDS011;73431;40.794;43.836;2024-03-29T05:04:23;20.45;;;8.93;;
83495;SDS011;73431;40.794;43.836;2024-03-29T05:06:53;16.52;;;8.52;;
83495;SDS011;73431;40.794;43.836;2024-03-29T05:09:19;17.52;;;8.82;;
83495;SDS011;73431;40.794;43.836;2024-03-29T05:11:46;17.42;;;8.90;;
83495;SDS011;73431;40.794;43.836;2024-03-29T05:14:16;19.40;;;7.93;;
83495;SDS011;73431;40.794;43.836;2024-03-29T05:16:48;22.30;;;9.60;;
83495;SDS011;73431;40.794;43.836;2024-03-29T05:19:15;14.18;;;7.63;;
83495;SDS011;73431;40.794;43.836;2024-03-29T05:21:41;17.52;;;9.32;;
83495;SDS011;73431;40.794;43.836;2024-03-29T05:24:08;21.75;;;8.60;;
83495;SDS011;73431;40.794;43.836;2024-03-29T05:26:35;24.13;;;9.38;;
83495;SDS011;73431;40.794;43.836;2024-03-29T05:29:02;17.98;;;9.77;;
83495;SDS011;73431;40.794;43.836;2024-03-29T05:31:30;20.63;;;9.48;;
83495;SDS011;73431;40.794;43.836;2024-03-29T05:33:56;15.32;;;8.95;;
83495;SDS011;73431;40.794;43.836;2024-03-29T05:36:23;19.63;;;9.30;;
83495;SDS011;73431;40.794;43.836;2024-03-29T05:38:50;17.42;;;9.32;;
83495;SDS011;73431;40.794;43.836;2024-03-29T05:41:16;18.05;;;9.75;;
83495;SDS011;73431;40.794;43.836;2024-03-29T05:43:43;21.25;;;8.52;;
83495;SDS011;73431;40.794;43.836;2024-03-29T05:46:10;15.98;;;8.60;;
83495;SDS011;73431;40.794;43.836;2024-03-29T05:48:36;16.58;;;9.10;;
83495;SDS011;73431;40.794;43.836;2024-03-29T05:51:05;20.90;;;9.13;;
83495;SDS011;73431;40.794;43.836;2024-03-29T05:53:31;14.70;;;9.27;;
83495;SDS011;73431;40.794;43.836;2024-03-29T05:55:58;20.40;;;9.20;;
83495;SDS011;73431;40.794;43.836;2024-03-29T05:58:24;17.70;;;9.82;;
83495;SDS011;73431;40.794;43.836;2024-03-29T06:00:51;24.00;;;9.85;;
83495;SDS011;73431;40.794;43.836;2024-03-29T06:03:17;27.88;;;10.18;;
83495;SDS011;73431;40.794;43.836;2024-03-29T06:05:44;23.30;;;9.40;;
83495;SDS011;73431;40.794;43.836;2024-03-29T06:08:10;29.95;;;10.57;;
83495;SDS011;73431;40.794;43.836;2024-03-29T06:10:37;23.65;;;9.85;;
83495;SDS011;73431;40.794;43.836;2024-03-29T06:13:04;31.00;;;10.82;;
83495;SDS011;73431;40.794;43.836;2024-03-29T06:15:35;27.65;;;11.27;;
83495;SDS011;73431;40.794;43.836;2024-03-29T06:18:20;33.20;;;10.40;;
83495;SDS011;73431;40.794;43.836;2024-03-29T06:20:47;24.02;;;9.85;;
83495;SDS011;73431;40.794;43.836;2024-03-29T06:23:15;27.38;;;10.32;;
83495;SDS011;73431;40.794;43.836;2024-03-29T06:25:41;31.23;;;9.80;;
83495;SDS011;73431;40.794;43.836;2024-03-29T06:28:08;26.63;;;9.88;;
83495;SDS011;73431;40.794;43.836;2024-03-29T06:30:35;21.58;;;9.93;;
83495;SDS011;73431;40.794;43.836;2024-03-29T06:33:01;29.05;;;10.00;;
83495;SDS011;73431;40.794;43.836;2024-03-29T06:35:29;20.73;;;10.38;;
83495;SDS011;73431;40.794;43.836;2024-03-29T06:37:56;30.83;;;11.27;;
83495;SDS011;73431;40.794;43.836;2024-03-29T06:40:23;20.02;;;10.82;;
83495;SDS011;73431;40.794;43.836;2024-03-29T06:42:50;19.90;;;9.43;;
83495;SDS011;73431;40.794;43.836;2024-03-29T06:45:17;23.02;;;10.20;;
83495;SDS011;73431;40.794;43.836;2024-03-29T06:47:44;40.90;;;11.75;;
83495;SDS011;73431;40.794;43.836;2024-03-29T06:50:10;23.25;;;9.40;;
83495;SDS011;73431;40.794;43.836;2024-03-29T06:52:37;17.83;;;7.72;;
83495;SDS011;73431;40.794;43.836;2024-03-29T06:55:03;14.68;;;7.50;;
83495;SDS011;73431;40.794;43.836;2024-03-29T06:57:30;18.80;;;7.90;;
83495;SDS011;73431;40.794;43.836;2024-03-29T06:59:58;15.35;;;8.52;;
83495;SDS011;73431;40.794;43.836;2024-03-29T07:02:24;15.63;;;8.50;;
83495;SDS011;73431;40.794;43.836;2024-03-29T07:04:51;15.45;;;7.60;;
83495;SDS011;73431;40.794;43.836;2024-03-29T07:07:17;13.25;;;7.60;;
83495;SDS011;73431;40.794;43.836;2024-03-29T07:09:44;13.57;;;7.25;;
83495;SDS011;73431;40.794;43.836;2024-03-29T07:12:11;14.60;;;7.47;;
83495;SDS011;73431;40.794;43.836;2024-03-29T07:14:37;9.75;;;6.38;;
83495;SDS011;73431;40.794;43.836;2024-03-29T07:17:04;10.35;;;6.38;;
83495;SDS011;73431;40.794;43.836;2024-03-29T07:19:30;11.32;;;6.15;;
83495;SDS011;73431;40.794;43.836;2024-03-29T07:21:57;12.75;;;5.88;;
83495;SDS011;73431;40.794;43.836;2024-03-29T07:24:24;11.20;;;5.57;;
83495;SDS011;73431;40.794;43.836;2024-03-29T07:26:50;10.60;;;6.28;;
83495;SDS011;73431;40.794;43.836;2024-03-29T07:29:17;10.43;;;5.10;;
83495;SDS011;73431;40.794;43.836;2024-03-29T07:31:43;11.25;;;5.25;;
83495;SDS011;73431;40.794;43.836;2024-03-29T07:34:10;13.98;;;7.18;;
83495;SDS011;73431;40.794;43.836;2024-03-29T07:36:36;10.55;;;5.45;;
83495;SDS011;73431;40.794;43.836;2024-03-29T07:39:04;13.80;;;6.82;;
83495;SDS011;73431;40.794;43.836;2024-03-29T07:41:30;8.02;;;5.07;;
83495;SDS011;73431;40.794;43.836;2024-03-29T07:43:57;15.93;;;5.30;;
83495;SDS011;73431;40.794;43.836;2024-03-29T07:46:33;14.25;;;6.10;;
83495;SDS011;73431;40.794;43.836;2024-03-29T07:49:01;14.80;;;5.85;;
83495;SDS011;73431;40.794;43.836;2024-03-29T07:51:28;21.25;;;6.43;;
83495;SDS011;73431;40.794;43.836;2024-03-29T07:53:55;8.50;;;5.72;;
83495;SDS011;73431;40.794;43.836;2024-03-29T07:56:22;9.00;;;5.38;;
83495;SDS011;73431;40.794;43.836;2024-03-29T07:58:51;11.57;;;5.65;;
83495;SDS011;73431;40.794;43.836;2024-03-29T08:01:20;10.25;;;4.95;;
83495;SDS011;73431;40.794;43.836;2024-03-29T08:03:49;9.23;;;3.60;;
83495;SDS011;73431;40.794;43.836;2024-03-29T08:06:17;12.57;;;4.53;;
83495;SDS011;73431;40.794;43.836;2024-03-29T08:08:45;9.43;;;5.07;;
83495;SDS011;73431;40.794;43.836;2024-03-29T08:11:14;13.77;;;5.00;;
83495;SDS011;73431;40.794;43.836;2024-03-29T08:13:41;11.32;;;3.53;;
83495;SDS011;73431;40.794;43.836;2024-03-29T08:16:07;16.65;;;5.05;;
83495;SDS011;73431;40.794;43.836;2024-03-29T08:18:35;12.57;;;4.15;;
83495;SDS011;73431;40.794;43.836;2024-03-29T08:21:02;10.05;;;4.47;;
83495;SDS011;73431;40.794;43.836;2024-03-29T08:23:29;15.02;;;5.03;;
83495;SDS011;73431;40.794;43.836;2024-03-29T08:25:56;11.40;;;4.93;;
83495;SDS011;73431;40.794;43.836;2024-03-29T08:28:23;19.23;;;5.70;;
83495;SDS011;73431;40.794;43.836;2024-03-29T08:30:59;20.55;;;5.65;;
83495;SDS011;73431;40.794;43.836;2024-03-29T08:33:27;11.00;;;6.25;;
83495;SDS011;73431;40.794;43.836;2024-03-29T08:35:54;13.65;;;5.13;;
83495;SDS011;73431;40.794;43.836;2024-03-29T08:38:20;14.20;;;5.78;;
83495;SDS011;73431;40.794;43.836;2024-03-29T08:40:47;28.73;;;8.10;;
83495;SDS011;73431;40.794;43.836;2024-03-29T08:43:14;15.23;;;6.10;;
83495;SDS011;73431;40.794;43.836;2024-03-29T08:48:08;14.27;;;5.88;;
83495;SDS011;73431;40.794;43.836;2024-03-29T08:50:35;12.73;;;6.05;;
83495;SDS011;73431;40.794;43.836;2024-03-29T08:53:02;16.95;;;5.82;;
83495;SDS011;73431;40.794;43.836;2024-03-29T08:55:30;10.80;;;4.90;;
83495;SDS011;73431;40.794;43.836;2024-03-29T08:58:00;15.40;;;5.78;;
83495;SDS011;73431;40.794;43.836;2024-03-29T09:00:28;12.13;;;5.65;;
83495;SDS011;73431;40.794;43.836;2024-03-29T09:02:56;20.75;;;6.00;;
83495;SDS011;73431;40.794;43.836;2024-03-29T09:05:23;12.45;;;5.30;;
83495;SDS011;73431;40.794;43.836;2024-03-29T09:07:51;17.60;;;5.85;;
83495;SDS011;73431;40.794;43.836;2024-03-29T09:10:18;13.00;;;5.35;;
83495;SDS011;73431;40.794;43.836;2024-03-29T09:12:44;13.15;;;4.78;;
83495;SDS011;73431;40.794;43.836;2024-03-29T09:15:10;19.10;;;5.88;;
83495;SDS011;73431;40.794;43.836;2024-03-29T09:17:45;12.85;;;5.35;;
83495;SDS011;73431;40.794;43.836;2024-03-29T09:20:12;15.63;;;5.32;;
83495;SDS011;73431;40.794;43.836;2024-03-29T09:22:40;15.95;;;5.13;;
83495;SDS011;73431;40.794;43.836;2024-03-29T09:25:07;13.02;;;5.30;;
83495;SDS011;73431;40.794;43.836;2024-03-29T09:27:39;14.35;;;4.65;;
83495;SDS011;73431;40.794;43.836;2024-03-29T09:30:10;10.73;;;4.88;;
83495;SDS011;73431;40.794;43.836;2024-03-29T09:32:37;38.75;;;18.23;;
83495;SDS011;73431;40.794;43.836;2024-03-29T09:35:04;12.68;;;4.93;;
83495;SDS011;73431;40.794;43.836;2024-03-29T09:37:31;14.25;;;4.60;;
83495;SDS011;73431;40.794;43.836;2024-03-29T09:40:02;15.88;;;4.75;;
83495;SDS011;73431;40.794;43.836;2024-03-29T09:42:31;12.77;;;4.03;;
83495;SDS011;73431;40.794;43.836;2024-03-29T09:45:01;8.50;;;3.78;;
83495;SDS011;73431;40.794;43.836;2024-03-29T09:47:32;13.73;;;5.05;;
83495;SDS011;73431;40.794;43.836;2024-03-29T09:50:02;10.65;;;4.35;;
83495;SDS011;73431;40.794;43.836;2024-03-29T09:52:31;12.82;;;5.35;;
83495;SDS011;73431;40.794;43.836;2024-03-29T09:54:59;17.10;;;6.43;;
83495;SDS011;73431;40.794;43.836;2024-03-29T09:57:31;13.80;;;4.78;;
83495;SDS011;73431;40.794;43.836;2024-03-29T09:59:58;15.75;;;5.35;;
83495;SDS011;73431;40.794;43.836;2024-03-29T10:02:25;12.70;;;4.03;;
83495;SDS011;73431;40.794;43.836;2024-03-29T10:04:55;14.93;;;4.43;;
83495;SDS011;73431;40.794;43.836;2024-03-29T10:07:23;12.98;;;4.22;;
83495;SDS011;73431;40.794;43.836;2024-03-29T10:09:51;11.25;;;3.90;;
83495;SDS011;73431;40.794;43.836;2024-03-29T10:14:46;11.45;;;3.75;;
83495;SDS011;73431;40.794;43.836;2024-03-29T10:17:18;15.00;;;4.93;;
83495;SDS011;73431;40.794;43.836;2024-03-29T10:19:45;12.25;;;3.92;;
83495;SDS011;73431;40.794;43.836;2024-03-29T10:22:13;15.07;;;4.10;;
83495;SDS011;73431;40.794;43.836;2024-03-29T10:24:39;13.93;;;4.03;;
83495;SDS011;73431;40.794;43.836;2024-03-29T10:27:06;18.52;;;4.70;;
83495;SDS011;73431;40.794;43.836;2024-03-29T10:29:33;21.13;;;4.90;;
83495;SDS011;73431;40.794;43.836;2024-03-29T10:32:00;15.40;;;4.38;;
83495;SDS011;73431;40.794;43.836;2024-03-29T10:34:29;17.63;;;3.72;;
83495;SDS011;73431;40.794;43.836;2024-03-29T10:37:00;11.68;;;4.53;;
83495;SDS011;73431;40.794;43.836;2024-03-29T10:39:28;12.95;;;3.53;;
83495;SDS011;73431;40.794;43.836;2024-03-29T10:41:57;15.73;;;4.32;;
83495;SDS011;73431;40.794;43.836;2024-03-29T10:44:25;20.15;;;4.32;;
83495;SDS011;73431;40.794;43.836;2024-03-29T10:46:53;18.05;;;4.88;;
83495;SDS011;73431;40.794;43.836;2024-03-29T10:49:22;19.33;;;4.57;;
83495;SDS011;73431;40.794;43.836;2024-03-29T10:51:50;18.63;;;4.22;;
83495;SDS011;73431;40.794;43.836;2024-03-29T10:54:17;20.73;;;4.53;;
83495;SDS011;73431;40.794;43.836;2024-03-29T10:56:46;19.95;;;4.53;;
83495;SDS011;73431;40.794;43.836;2024-03-29T11:02:30;17.50;;;3.63;;
83495;SDS011;73431;40.794;43.836;2024-03-29T11:05:14;16.48;;;4.22;;
83495;SDS011;73431;40.794;43.836;2024-03-29T11:07:42;14.20;;;4.13;;
83495;SDS011;73431;40.794;43.836;2024-03-29T11:10:18;13.43;;;7.47;;
83495;SDS011;73431;40.794;43.836;2024-03-29T11:12:59;20.10;;;4.35;;
83495;SDS011;73431;40.794;43.836;2024-03-29T11:15:37;14.18;;;3.78;;
83495;SDS011;73431;40.794;43.836;2024-03-29T11:18:07;17.70;;;3.83;;
83495;SDS011;73431;40.794;43.836;2024-03-29T11:20:35;15.20;;;4.25;;
83495;SDS011;73431;40.794;43.836;2024-03-29T11:23:09;16.17;;;3.92;;
83495;SDS011;73431;40.794;43.836;2024-03-29T11:28:11;8.48;;;3.97;;
83495;SDS011;73431;40.794;43.836;2024-03-29T11:30:47;18.60;;;4.22;;
83495;SDS011;73431;40.794;43.836;2024-03-29T11:33:33;12.55;;;3.25;;
83495;SDS011;73431;40.794;43.836;2024-03-29T11:36:21;37.95;;;4.85;;
83495;SDS011;73431;40.794;43.836;2024-03-29T11:38:51;11.70;;;3.22;;
83495;SDS011;73431;40.794;43.836;2024-03-29T11:41:22;16.20;;;3.90;;
83495;SDS011;73431;40.794;43.836;2024-03-29T11:43:53;18.48;;;3.72;;
83495;SDS011;73431;40.794;43.836;2024-03-29T11:46:21;16.25;;;3.78;;
83495;SDS011;73431;40.794;43.836;2024-03-29T11:48:48;12.18;;;4.63;;
83495;SDS011;73431;40.794;43.836;2024-03-29T11:51:18;27.00;;;5.65;;
83495;SDS011;73431;40.794;43.836;2024-03-29T11:53:52;20.08;;;3.63;;
83495;SDS011;73431;40.794;43.836;2024-03-29T11:56:19;17.33;;;4.53;;
83495;SDS011;73431;40.794;43.836;2024-03-29T11:58:46;15.15;;;3.80;;
83495;SDS011;73431;40.794;43.836;2024-03-29T12:01:15;20.98;;;5.28;;
83495;SDS011;73431;40.794;43.836;2024-03-29T12:03:43;16.17;;;3.80;;
83495;SDS011;73431;40.794;43.836;2024-03-29T12:06:10;17.92;;;4.05;;
83495;SDS011;73431;40.794;43.836;2024-03-29T12:08:40;16.52;;;3.65;;
83495;SDS011;73431;40.794;43.836;2024-03-29T12:11:08;15.07;;;4.07;;
83495;SDS011;73431;40.794;43.836;2024-03-29T12:13:35;19.52;;;4.95;;
83495;SDS011;73431;40.794;43.836;2024-03-29T12:16:02;10.20;;;3.33;;
83495;SDS011;73431;40.794;43.836;2024-03-29T12:18:29;9.43;;;4.03;;
83495;SDS011;73431;40.794;43.836;2024-03-29T12:20:59;19.88;;;3.65;;
83495;SDS011;73431;40.794;43.836;2024-03-29T12:23:26;17.33;;;4.55;;
83495;SDS011;73431;40.794;43.836;2024-03-29T12:25:53;20.02;;;4.68;;
83495;SDS011;73431;40.794;43.836;2024-03-29T12:28:24;16.05;;;3.90;;
83495;SDS011;73431;40.794;43.836;2024-03-29T12:30:52;23.20;;;4.00;;
83495;SDS011;73431;40.794;43.836;2024-03-29T12:33:22;21.67;;;4.72;;
83495;SDS011;73431;40.794;43.836;2024-03-29T12:35:50;15.38;;;3.70;;
83495;SDS011;73431;40.794;43.836;2024-03-29T12:38:21;16.15;;;4.43;;
83495;SDS011;73431;40.794;43.836;2024-03-29T12:40:49;19.30;;;4.90;;
83495;SDS011;73431;40.794;43.836;2024-03-29T12:43:20;18.50;;;6.65;;
83495;SDS011;73431;40.794;43.836;2024-03-29T12:45:49;24.60;;;5.88;;
83495;SDS011;73431;40.794;43.836;2024-03-29T12:48:18;15.65;;;5.25;;
83495;SDS011;73431;40.794;43.836;2024-03-29T12:50:51;17.88;;;4.55;;
83495;SDS011;73431;40.794;43.836;2024-03-29T12:55:46;13.90;;;4.57;;
83495;SDS011;73431;40.794;43.836;2024-03-29T12:58:15;32.05;;;7.45;;
83495;SDS011;73431;40.794;43.836;2024-03-29T13:00:44;42.58;;;9.38;;
83495;SDS011;73431;40.794;43.836;2024-03-29T13:03:11;17.90;;;6.95;;
83495;SDS011;73431;40.794;43.836;2024-03-29T13:05:39;19.27;;;6.35;;
83495;SDS011;73431;40.794;43.836;2024-03-29T13:08:09;27.40;;;8.00;;
83495;SDS011;73431;40.794;43.836;2024-03-29T13:10:38;19.52;;;6.65;;
83495;SDS011;73431;40.794;43.836;2024-03-29T13:13:08;21.75;;;6.40;;
83495;SDS011;73431;40.794;43.836;2024-03-29T13:15:35;14.70;;;5.40;;
83495;SDS011;73431;40.794;43.836;2024-03-29T13:18:03;19.95;;;6.10;;
83495;SDS011;73431;40.794;43.836;2024-03-29T13:22:58;28.33;;;7.30;;
83495;SDS011;73431;40.794;43.836;2024-03-29T13:25:25;23.33;;;6.97;;
83495;SDS011;73431;40.794;43.836;2024-03-29T13:27:52;22.45;;;7.40;;
83495;SDS011;73431;40.794;43.836;2024-03-29T13:30:22;25.25;;;7.18;;
83495;SDS011;73431;40.794;43.836;2024-03-29T13:32:50;25.05;;;7.35;;
83495;SDS011;73431;40.794;43.836;2024-03-29T13:35:18;33.13;;;6.97;;
83495;SDS011;73431;40.794;43.836;2024-03-29T13:37:48;21.33;;;7.78;;
83495;SDS011;73431;40.794;43.836;2024-03-29T13:42:43;26.15;;;7.63;;
83495;SDS011;73431;40.794;43.836;2024-03-29T13:45:10;46.17;;;8.95;;
83495;SDS011;73431;40.794;43.836;2024-03-29T13:47:38;24.55;;;7.32;;
83495;SDS011;73431;40.794;43.836;2024-03-29T13:50:06;18.27;;;6.68;;
83495;SDS011;73431;40.794;43.836;2024-03-29T13:52:34;46.08;;;12.70;;
83495;SDS011;73431;40.794;43.836;2024-03-29T13:55:01;32.38;;;11.35;;
83495;SDS011;73431;40.794;43.836;2024-03-29T13:57:30;34.42;;;11.43;;
83495;SDS011;73431;40.794;43.836;2024-03-29T14:00:00;37.20;;;11.32;;
83495;SDS011;73431;40.794;43.836;2024-03-29T14:02:28;46.75;;;12.80;;
83495;SDS011;73431;40.794;43.836;2024-03-29T14:04:55;39.45;;;10.05;;
83495;SDS011;73431;40.794;43.836;2024-03-29T14:07:23;29.30;;;9.90;;
83495;SDS011;73431;40.794;43.836;2024-03-29T14:09:54;47.65;;;16.50;;
83495;SDS011;73431;40.794;43.836;2024-03-29T14:12:20;32.53;;;12.32;;
83495;SDS011;73431;40.794;43.836;2024-03-29T14:14:53;42.08;;;12.65;;
83495;SDS011;73431;40.794;43.836;2024-03-29T14:17:20;42.83;;;13.15;;
83495;SDS011;73431;40.794;43.836;2024-03-29T14:19:47;51.95;;;11.05;;
83495;SDS011;73431;40.794;43.836;2024-03-29T14:22:15;49.35;;;12.85;;
83495;SDS011;73431;40.794;43.836;2024-03-29T14:24:44;39.13;;;11.32;;
83495;SDS011;73431;40.794;43.836;2024-03-29T14:27:12;38.70;;;13.05;;
83495;SDS011;73431;40.794;43.836;2024-03-29T14:29:41;68.40;;;17.50;;
83495;SDS011;73431;40.794;43.836;2024-03-29T14:32:10;47.80;;;14.23;;
83495;SDS011;73431;40.794;43.836;2024-03-29T14:34:37;45.13;;;15.00;;
83495;SDS011;73431;40.794;43.836;2024-03-29T14:37:10;54.22;;;15.18;;
83495;SDS011;73431;40.794;43.836;2024-03-29T14:39:39;66.40;;;20.17;;
83495;SDS011;73431;40.794;43.836;2024-03-29T14:42:08;48.40;;;12.48;;
83495;SDS011;73431;40.794;43.836;2024-03-29T14:44:38;40.97;;;11.65;;